sensor_id;sensor_type;location;lat;lon;timestamp;P1;durP1;ratioP1;P2;durP2;ratioP2
39982;SDS011;25670;44.782;10.356;2023-03-21T00:00:13;45.15;;;25.10;;
39982;SDS011;25670;44.782;10.356;2023-03-21T00:02:42;43.22;;;25.67;;
39982;SDS011;25670;44.782;10.356;2023-03-21T00:05:09;46.47;;;26.33;;
39982;SDS011;25670;44.782;10.356;2023-03-21T00:07:36;47.67;;;25.90;;
39982;SDS011;25670;44.782;10.356;2023-03-21T00:10:03;43.55;;;26.90;;
39982;SDS011;25670;44.782;10.356;2023-03-21T00:12:29;41.40;;;25.55;;
39982;SDS011;25670;44.782;10.356;2023-03-21T00:14:59;46.60;;;26.52;;
39982;SDS011;25670;44.782;10.356;2023-03-21T00:17:30;40.03;;;25.53;;
39982;SDS011;25670;44.782;10.356;2023-03-21T00:19:57;39.72;;;25.63;;
39982;SDS011;25670;44.782;10.356;2023-03-21T00:22:25;42.50;;;27.25;;
39982;SDS011;25670;44.782;10.356;2023-03-21T00:24:53;41.63;;;25.52;;
39982;SDS011;25670;44.782;10.356;2023-03-21T00:27:20;44.80;;;25.52;;
39982;SDS011;25670;44.782;10.356;2023-03-21T00:29:46;40.25;;;26.08;;
39982;SDS011;25670;44.782;10.356;2023-03-21T00:32:17;41.92;;;25.30;;
39982;SDS011;25670;44.782;10.356;2023-03-21T00:34:46;42.33;;;26.13;;
39982;SDS011;25670;44.782;10.356;2023-03-21T00:37:14;42.38;;;25.77;;
39982;SDS011;25670;44.782;10.356;2023-03-21T00:39:43;40.10;;;24.08;;
39982;SDS011;25670;44.782;10.356;2023-03-21T00:42:17;43.70;;;24.65;;
39982;SDS011;25670;44.782;10.356;2023-03-21T00:44:43;44.63;;;22.83;;
39982;SDS011;25670;44.782;10.356;2023-03-21T00:47:10;38.42;;;25.02;;
39982;SDS011;25670;44.782;10.356;2023-03-21T00:49:37;43.17;;;24.38;;
39982;SDS011;25670;44.782;10.356;2023-03-21T00:52:06;36.20;;;23.45;;
39982;SDS011;25670;44.782;10.356;2023-03-21T00:54:34;44.47;;;25.77;;
39982;SDS011;25670;44.782;10.356;2023-03-21T00:57:02;46.40;;;25.63;;
39982;SDS011;25670;44.782;10.356;2023-03-21T00:59:30;35.63;;;24.10;;
39982;SDS011;25670;44.782;10.356;2023-03-21T01:02:02;37.38;;;23.95;;
39982;SDS011;25670;44.782;10.356;2023-03-21T01:04:39;35.47;;;24.80;;
39982;SDS011;25670;44.782;10.356;2023-03-21T01:07:06;39.05;;;24.58;;
39982;SDS011;25670;44.782;10.356;2023-03-21T01:09:32;31.90;;;22.13;;
39982;SDS011;25670;44.782;10.356;2023-03-21T01:11:59;35.30;;;24.00;;
39982;SDS011;25670;44.782;10.356;2023-03-21T01:14:25;35.95;;;23.17;;
39982;SDS011;25670;44.782;10.356;2023-03-21T01:16:52;39.38;;;23.15;;
39982;SDS011;25670;44.782;10.356;2023-03-21T01:19:20;37.28;;;24.40;;
39982;SDS011;25670;44.782;10.356;2023-03-21T01:21:47;37.92;;;24.50;;
39982;SDS011;25670;44.782;10.356;2023-03-21T01:24:14;37.25;;;24.42;;
39982;SDS011;25670;44.782;10.356;2023-03-21T01:26:40;40.35;;;24.42;;
39982;SDS011;25670;44.782;10.356;2023-03-21T01:29:07;36.03;;;23.73;;
39982;SDS011;25670;44.782;10.356;2023-03-21T01:31:34;36.03;;;22.40;;
39982;SDS011;25670;44.782;10.356;2023-03-21T01:34:01;34.47;;;22.63;;
39982;SDS011;25670;44.782;10.356;2023-03-21T01:36:28;38.05;;;24.90;;
39982;SDS011;25670;44.782;10.356;2023-03-21T01:39:02;44.92;;;25.20;;
39982;SDS011;25670;44.782;10.356;2023-03-21T01:41:31;41.15;;;25.40;;
39982;SDS011;25670;44.782;10.356;2023-03-21T01:44:03;44.63;;;26.05;;
39982;SDS011;25670;44.782;10.356;2023-03-21T01:46:42;44.67;;;25.98;;
39982;SDS011;25670;44.782;10.356;2023-03-21T01:49:46;43.30;;;24.70;;
39982;SDS011;25670;44.782;10.356;2023-03-21T01:52:26;44.47;;;26.88;;
39982;SDS011;25670;44.782;10.356;2023-03-21T01:54:57;45.53;;;27.63;;
39982;SDS011;25670;44.782;10.356;2023-03-21T01:57:31;40.25;;;25.50;;
39982;SDS011;25670;44.782;10.356;2023-03-21T02:00:04;44.63;;;25.88;;
39982;SDS011;25670;44.782;10.356;2023-03-21T02:02:45;43.10;;;25.75;;
39982;SDS011;25670;44.782;10.356;2023-03-21T02:08:28;43.15;;;25.65;;
39982;SDS011;25670;44.782;10.356;2023-03-21T02:10:56;45.25;;;27.25;;
39982;SDS011;25670;44.782;10.356;2023-03-21T02:13:35;41.65;;;25.08;;
39982;SDS011;25670;44.782;10.356;2023-03-21T02:16:07;44.72;;;26.60;;
39982;SDS011;25670;44.782;10.356;2023-03-21T02:24:32;37.10;;;24.13;;
39982;SDS011;25670;44.782;10.356;2023-03-21T02:27:21;35.47;;;23.35;;
39982;SDS011;25670;44.782;10.356;2023-03-21T02:35:48;37.55;;;23.58;;
39982;SDS011;25670;44.782;10.356;2023-03-21T02:38:37;37.40;;;24.05;;
39982;SDS011;25670;44.782;10.356;2023-03-21T02:41:20;41.15;;;25.65;;
39982;SDS011;25670;44.782;10.356;2023-03-21T02:46:52;41.40;;;24.20;;
39982;SDS011;25670;44.782;10.356;2023-03-21T02:49:35;40.25;;;24.50;;
39982;SDS011;25670;44.782;10.356;2023-03-21T02:52:26;43.72;;;24.45;;
39982;SDS011;25670;44.782;10.356;2023-03-21T02:54:56;37.38;;;23.73;;
39982;SDS011;25670;44.782;10.356;2023-03-21T02:57:31;44.33;;;25.92;;
39982;SDS011;25670;44.782;10.356;2023-03-21T03:00:00;44.95;;;26.33;;
39982;SDS011;25670;44.782;10.356;2023-03-21T03:02:36;47.40;;;26.13;;
39982;SDS011;25670;44.782;10.356;2023-03-21T03:05:11;43.95;;;25.90;;
39982;SDS011;25670;44.782;10.356;2023-03-21T03:07:43;45.25;;;25.23;;
39982;SDS011;25670;44.782;10.356;2023-03-21T03:13:33;48.60;;;25.15;;
39982;SDS011;25670;44.782;10.356;2023-03-21T03:16:25;41.78;;;24.67;;
39982;SDS011;25670;44.782;10.356;2023-03-21T03:18:58;40.55;;;25.77;;
39982;SDS011;25670;44.782;10.356;2023-03-21T03:23:54;38.85;;;24.13;;
39982;SDS011;25670;44.782;10.356;2023-03-21T03:26:37;39.97;;;23.65;;
39982;SDS011;25670;44.782;10.356;2023-03-21T03:29:11;36.85;;;23.70;;
39982;SDS011;25670;44.782;10.356;2023-03-21T03:31:42;34.45;;;23.02;;
39982;SDS011;25670;44.782;10.356;2023-03-21T03:34:18;38.88;;;24.15;;
39982;SDS011;25670;44.782;10.356;2023-03-21T03:36:49;37.58;;;22.45;;
39982;SDS011;25670;44.782;10.356;2023-03-21T03:39:21;44.80;;;25.25;;
39982;SDS011;25670;44.782;10.356;2023-03-21T03:41:58;35.80;;;24.02;;
39982;SDS011;25670;44.782;10.356;2023-03-21T03:44:34;39.33;;;23.67;;
39982;SDS011;25670;44.782;10.356;2023-03-21T03:47:05;33.72;;;21.92;;
39982;SDS011;25670;44.782;10.356;2023-03-21T03:49:41;39.70;;;23.05;;
39982;SDS011;25670;44.782;10.356;2023-03-21T03:52:15;38.97;;;24.40;;
39982;SDS011;25670;44.782;10.356;2023-03-21T03:57:23;42.72;;;23.25;;
39982;SDS011;25670;44.782;10.356;2023-03-21T03:59:51;42.10;;;25.23;;
39982;SDS011;25670;44.782;10.356;2023-03-21T04:02:36;40.30;;;25.13;;
39982;SDS011;25670;44.782;10.356;2023-03-21T04:05:03;42.45;;;25.58;;
39982;SDS011;25670;44.782;10.356;2023-03-21T04:07:32;41.90;;;24.45;;
39982;SDS011;25670;44.782;10.356;2023-03-21T04:10:00;44.38;;;24.23;;
39982;SDS011;25670;44.782;10.356;2023-03-21T04:12:27;40.15;;;24.90;;
39982;SDS011;25670;44.782;10.356;2023-03-21T04:15:22;37.78;;;24.77;;
39982;SDS011;25670;44.782;10.356;2023-03-21T04:17:54;39.60;;;24.83;;
39982;SDS011;25670;44.782;10.356;2023-03-21T04:20:22;42.58;;;24.30;;
39982;SDS011;25670;44.782;10.356;2023-03-21T04:22:48;41.03;;;24.42;;
39982;SDS011;25670;44.782;10.356;2023-03-21T04:25:19;44.63;;;25.95;;
39982;SDS011;25670;44.782;10.356;2023-03-21T04:27:45;42.72;;;24.73;;
39982;SDS011;25670;44.782;10.356;2023-03-21T04:30:32;40.45;;;24.83;;
39982;SDS011;25670;44.782;10.356;2023-03-21T04:33:09;41.33;;;24.38;;
39982;SDS011;25670;44.782;10.356;2023-03-21T04:35:37;44.90;;;26.08;;
39982;SDS011;25670;44.782;10.356;2023-03-21T04:38:04;39.97;;;25.17;;
39982;SDS011;25670;44.782;10.356;2023-03-21T04:40:31;40.83;;;24.23;;
39982;SDS011;25670;44.782;10.356;2023-03-21T04:43:03;39.17;;;24.77;;
39982;SDS011;25670;44.782;10.356;2023-03-21T04:45:29;41.08;;;25.70;;
39982;SDS011;25670;44.782;10.356;2023-03-21T04:47:56;42.83;;;25.52;;
39982;SDS011;25670;44.782;10.356;2023-03-21T04:50:23;41.25;;;24.08;;
39982;SDS011;25670;44.782;10.356;2023-03-21T04:52:50;38.22;;;24.95;;
39982;SDS011;25670;44.782;10.356;2023-03-21T04:55:18;36.40;;;23.50;;
39982;SDS011;25670;44.782;10.356;2023-03-21T04:57:46;36.55;;;24.10;;
39982;SDS011;25670;44.782;10.356;2023-03-21T05:00:13;41.30;;;25.00;;
39982;SDS011;25670;44.782;10.356;2023-03-21T05:02:40;42.60;;;25.45;;
39982;SDS011;25670;44.782;10.356;2023-03-21T05:05:06;38.95;;;24.20;;
39982;SDS011;25670;44.782;10.356;2023-03-21T05:07:36;44.85;;;26.23;;
39982;SDS011;25670;44.782;10.356;2023-03-21T05:10:04;40.60;;;24.02;;
39982;SDS011;25670;44.782;10.356;2023-03-21T05:12:32;37.78;;;24.80;;
39982;SDS011;25670;44.782;10.356;2023-03-21T05:14:59;40.83;;;24.27;;
39982;SDS011;25670;44.782;10.356;2023-03-21T05:17:25;40.97;;;24.20;;
39982;SDS011;25670;44.782;10.356;2023-03-21T05:19:55;42.05;;;24.50;;
39982;SDS011;25670;44.782;10.356;2023-03-21T05:22:22;39.70;;;23.92;;
39982;SDS011;25670;44.782;10.356;2023-03-21T05:24:50;45.47;;;25.35;;
39982;SDS011;25670;44.782;10.356;2023-03-21T05:27:39;55.53;;;25.08;;
39982;SDS011;25670;44.782;10.356;2023-03-21T05:30:11;40.53;;;23.92;;
39982;SDS011;25670;44.782;10.356;2023-03-21T05:32:43;46.35;;;24.92;;
39982;SDS011;25670;44.782;10.356;2023-03-21T05:35:11;41.08;;;25.40;;
39982;SDS011;25670;44.782;10.356;2023-03-21T05:37:38;39.90;;;23.88;;
39982;SDS011;25670;44.782;10.356;2023-03-21T05:40:05;40.35;;;23.42;;
39982;SDS011;25670;44.782;10.356;2023-03-21T05:42:37;45.60;;;24.67;;
39982;SDS011;25670;44.782;10.356;2023-03-21T05:45:12;40.95;;;23.73;;
39982;SDS011;25670;44.782;10.356;2023-03-21T05:47:38;40.50;;;23.15;;
39982;SDS011;25670;44.782;10.356;2023-03-21T05:50:06;34.88;;;22.85;;
39982;SDS011;25670;44.782;10.356;2023-03-21T05:52:33;38.35;;;22.02;;
39982;SDS011;25670;44.782;10.356;2023-03-21T05:55:08;39.67;;;23.38;;
39982;SDS011;25670;44.782;10.356;2023-03-21T05:57:36;42.90;;;22.33;;
39982;SDS011;25670;44.782;10.356;2023-03-21T06:00:08;37.22;;;22.38;;
39982;SDS011;25670;44.782;10.356;2023-03-21T06:02:41;39.88;;;21.95;;
39982;SDS011;25670;44.782;10.356;2023-03-21T06:05:22;35.08;;;22.20;;
39982;SDS011;25670;44.782;10.356;2023-03-21T06:07:49;39.20;;;21.48;;
39982;SDS011;25670;44.782;10.356;2023-03-21T06:10:15;33.38;;;20.13;;
39982;SDS011;25670;44.782;10.356;2023-03-21T06:12:45;29.38;;;18.40;;
39982;SDS011;25670;44.782;10.356;2023-03-21T06:15:26;30.42;;;19.35;;
39982;SDS011;25670;44.782;10.356;2023-03-21T06:18:00;29.35;;;17.85;;
39982;SDS011;25670;44.782;10.356;2023-03-21T06:20:27;32.72;;;18.52;;
39982;SDS011;25670;44.782;10.356;2023-03-21T06:23:01;26.30;;;18.48;;
39982;SDS011;25670;44.782;10.356;2023-03-21T06:25:28;27.55;;;17.70;;
39982;SDS011;25670;44.782;10.356;2023-03-21T06:27:54;26.17;;;18.33;;
39982;SDS011;25670;44.782;10.356;2023-03-21T06:30:21;23.48;;;17.88;;
39982;SDS011;25670;44.782;10.356;2023-03-21T06:33:07;26.10;;;16.75;;
39982;SDS011;25670;44.782;10.356;2023-03-21T06:35:35;25.33;;;16.55;;
39982;SDS011;25670;44.782;10.356;2023-03-21T06:38:02;24.80;;;15.80;;
39982;SDS011;25670;44.782;10.356;2023-03-21T06:40:31;21.05;;;15.75;;
39982;SDS011;25670;44.782;10.356;2023-03-21T06:42:58;24.15;;;15.57;;
39982;SDS011;25670;44.782;10.356;2023-03-21T06:45:24;29.48;;;14.50;;
39982;SDS011;25670;44.782;10.356;2023-03-21T06:47:52;21.42;;;16.55;;
39982;SDS011;25670;44.782;10.356;2023-03-21T06:50:28;25.75;;;16.73;;
39982;SDS011;25670;44.782;10.356;2023-03-21T06:52:55;24.98;;;15.95;;
39982;SDS011;25670;44.782;10.356;2023-03-21T06:55:26;26.52;;;16.02;;
39982;SDS011;25670;44.782;10.356;2023-03-21T06:57:55;18.63;;;15.98;;
39982;SDS011;25670;44.782;10.356;2023-03-21T07:00:25;21.90;;;16.08;;
39982;SDS011;25670;44.782;10.356;2023-03-21T07:02:51;17.70;;;14.82;;
39982;SDS011;25670;44.782;10.356;2023-03-21T07:05:19;26.55;;;16.00;;
39982;SDS011;25670;44.782;10.356;2023-03-21T07:07:46;21.33;;;15.15;;
39982;SDS011;25670;44.782;10.356;2023-03-21T07:10:13;25.50;;;16.70;;
39982;SDS011;25670;44.782;10.356;2023-03-21T07:12:47;26.10;;;16.27;;
39982;SDS011;25670;44.782;10.356;2023-03-21T07:15:23;20.70;;;15.88;;
39982;SDS011;25670;44.782;10.356;2023-03-21T07:17:50;23.13;;;15.80;;
39982;SDS011;25670;44.782;10.356;2023-03-21T07:20:17;26.45;;;15.88;;
39982;SDS011;25670;44.782;10.356;2023-03-21T07:22:43;28.73;;;16.55;;
39982;SDS011;25670;44.782;10.356;2023-03-21T07:25:10;24.45;;;16.42;;
39982;SDS011;25670;44.782;10.356;2023-03-21T07:27:38;25.75;;;15.70;;
39982;SDS011;25670;44.782;10.356;2023-03-21T07:30:04;19.65;;;15.60;;
39982;SDS011;25670;44.782;10.356;2023-03-21T07:32:32;24.40;;;16.40;;
39982;SDS011;25670;44.782;10.356;2023-03-21T07:35:01;22.45;;;16.38;;
39982;SDS011;25670;44.782;10.356;2023-03-21T07:37:28;22.52;;;15.98;;
39982;SDS011;25670;44.782;10.356;2023-03-21T07:39:55;25.45;;;17.75;;
39982;SDS011;25670;44.782;10.356;2023-03-21T07:42:23;23.00;;;16.90;;
39982;SDS011;25670;44.782;10.356;2023-03-21T07:44:57;20.77;;;15.00;;
39982;SDS011;25670;44.782;10.356;2023-03-21T07:47:24;23.20;;;15.18;;
39982;SDS011;25670;44.782;10.356;2023-03-21T07:49:50;19.83;;;16.20;;
39982;SDS011;25670;44.782;10.356;2023-03-21T07:52:17;30.65;;;16.95;;
39982;SDS011;25670;44.782;10.356;2023-03-21T07:54:43;24.08;;;18.30;;
39982;SDS011;25670;44.782;10.356;2023-03-21T07:57:10;22.92;;;17.30;;
39982;SDS011;25670;44.782;10.356;2023-03-21T07:59:36;20.88;;;16.20;;
39982;SDS011;25670;44.782;10.356;2023-03-21T08:02:03;22.20;;;17.70;;
39982;SDS011;25670;44.782;10.356;2023-03-21T08:04:29;19.75;;;16.75;;
39982;SDS011;25670;44.782;10.356;2023-03-21T08:06:56;23.42;;;16.88;;
39982;SDS011;25670;44.782;10.356;2023-03-21T08:09:23;20.70;;;17.10;;
39982;SDS011;25670;44.782;10.356;2023-03-21T08:11:49;20.20;;;15.15;;
39982;SDS011;25670;44.782;10.356;2023-03-21T08:14:15;22.90;;;16.23;;
39982;SDS011;25670;44.782;10.356;2023-03-21T08:16:42;22.65;;;16.88;;
39982;SDS011;25670;44.782;10.356;2023-03-21T08:19:08;22.70;;;16.08;;
39982;SDS011;25670;44.782;10.356;2023-03-21T08:21:35;29.00;;;16.55;;
39982;SDS011;25670;44.782;10.356;2023-03-21T08:24:03;22.52;;;15.98;;
39982;SDS011;25670;44.782;10.356;2023-03-21T08:26:31;18.88;;;16.08;;
39982;SDS011;25670;44.782;10.356;2023-03-21T08:28:58;19.80;;;16.20;;
39982;SDS011;25670;44.782;10.356;2023-03-21T08:31:25;21.55;;;16.33;;
39982;SDS011;25670;44.782;10.356;2023-03-21T08:33:52;25.55;;;16.88;;
39982;SDS011;25670;44.782;10.356;2023-03-21T08:36:23;20.00;;;16.90;;
39982;SDS011;25670;44.782;10.356;2023-03-21T08:38:50;22.48;;;16.77;;
39982;SDS011;25670;44.782;10.356;2023-03-21T08:41:21;24.27;;;17.60;;
39982;SDS011;25670;44.782;10.356;2023-03-21T08:43:50;24.95;;;17.67;;
39982;SDS011;25670;44.782;10.356;2023-03-21T08:46:16;25.63;;;17.02;;
39982;SDS011;25670;44.782;10.356;2023-03-21T08:48:43;25.25;;;17.95;;
39982;SDS011;25670;44.782;10.356;2023-03-21T08:51:10;23.75;;;17.08;;
39982;SDS011;25670;44.782;10.356;2023-03-21T08:53:36;23.58;;;18.27;;
39982;SDS011;25670;44.782;10.356;2023-03-21T08:56:03;28.67;;;18.67;;
39982;SDS011;25670;44.782;10.356;2023-03-21T08:58:29;28.55;;;19.05;;
39982;SDS011;25670;44.782;10.356;2023-03-21T09:00:56;24.55;;;19.77;;
39982;SDS011;25670;44.782;10.356;2023-03-21T09:03:22;26.40;;;18.95;;
39982;SDS011;25670;44.782;10.356;2023-03-21T09:05:52;32.97;;;20.00;;
39982;SDS011;25670;44.782;10.356;2023-03-21T09:08:19;25.63;;;19.05;;
39982;SDS011;25670;44.782;10.356;2023-03-21T09:10:48;25.60;;;19.77;;
39982;SDS011;25670;44.782;10.356;2023-03-21T09:13:18;38.15;;;18.40;;
39982;SDS011;25670;44.782;10.356;2023-03-21T09:15:44;30.95;;;21.15;;
39982;SDS011;25670;44.782;10.356;2023-03-21T09:18:11;26.95;;;19.58;;
39982;SDS011;25670;44.782;10.356;2023-03-21T09:20:41;27.80;;;20.85;;
39982;SDS011;25670;44.782;10.356;2023-03-21T09:23:09;21.52;;;19.27;;
39982;SDS011;25670;44.782;10.356;2023-03-21T09:25:38;32.55;;;20.63;;
39982;SDS011;25670;44.782;10.356;2023-03-21T09:28:05;30.55;;;19.52;;
39982;SDS011;25670;44.782;10.356;2023-03-21T09:30:33;28.40;;;20.05;;
39982;SDS011;25670;44.782;10.356;2023-03-21T09:33:02;29.77;;;21.33;;
39982;SDS011;25670;44.782;10.356;2023-03-21T09:35:31;34.30;;;23.10;;
39982;SDS011;25670;44.782;10.356;2023-03-21T09:37:57;34.50;;;23.60;;
39982;SDS011;25670;44.782;10.356;2023-03-21T09:40:30;36.80;;;23.27;;
39982;SDS011;25670;44.782;10.356;2023-03-21T09:43:27;38.65;;;25.30;;
39982;SDS011;25670;44.782;10.356;2023-03-21T09:46:17;38.10;;;24.75;;
39982;SDS011;25670;44.782;10.356;2023-03-21T09:48:57;35.00;;;24.38;;
39982;SDS011;25670;44.782;10.356;2023-03-21T09:51:34;35.25;;;24.25;;
39982;SDS011;25670;44.782;10.356;2023-03-21T09:54:05;42.53;;;26.25;;
39982;SDS011;25670;44.782;10.356;2023-03-21T09:56:42;41.22;;;27.45;;
39982;SDS011;25670;44.782;10.356;2023-03-21T09:59:13;45.28;;;30.30;;
39982;SDS011;25670;44.782;10.356;2023-03-21T10:02:21;43.65;;;28.65;;
39982;SDS011;25670;44.782;10.356;2023-03-21T10:07:39;48.55;;;28.63;;
39982;SDS011;25670;44.782;10.356;2023-03-21T10:10:14;43.90;;;30.02;;
39982;SDS011;25670;44.782;10.356;2023-03-21T10:12:46;42.85;;;27.02;;
39982;SDS011;25670;44.782;10.356;2023-03-21T10:15:17;46.67;;;28.42;;
39982;SDS011;25670;44.782;10.356;2023-03-21T10:17:47;44.42;;;27.58;;
39982;SDS011;25670;44.782;10.356;2023-03-21T10:20:26;32.13;;;22.15;;
39982;SDS011;25670;44.782;10.356;2023-03-21T10:22:57;27.40;;;20.95;;
39982;SDS011;25670;44.782;10.356;2023-03-21T10:25:30;30.75;;;18.90;;
39982;SDS011;25670;44.782;10.356;2023-03-21T10:28:00;29.77;;;20.48;;
39982;SDS011;25670;44.782;10.356;2023-03-21T10:30:29;37.40;;;23.85;;
39982;SDS011;25670;44.782;10.356;2023-03-21T10:33:06;37.25;;;25.75;;
39982;SDS011;25670;44.782;10.356;2023-03-21T10:35:37;39.15;;;27.15;;
39982;SDS011;25670;44.782;10.356;2023-03-21T10:38:06;30.95;;;25.00;;
39982;SDS011;25670;44.782;10.356;2023-03-21T10:40:40;39.17;;;24.83;;
39982;SDS011;25670;44.782;10.356;2023-03-21T10:43:25;43.17;;;27.17;;
39982;SDS011;25670;44.782;10.356;2023-03-21T10:46:06;37.13;;;25.55;;
39982;SDS011;25670;44.782;10.356;2023-03-21T10:48:36;39.20;;;27.77;;
39982;SDS011;25670;44.782;10.356;2023-03-21T10:51:06;40.80;;;26.88;;
39982;SDS011;25670;44.782;10.356;2023-03-21T10:53:35;36.45;;;26.10;;
39982;SDS011;25670;44.782;10.356;2023-03-21T10:56:05;36.10;;;25.60;;
39982;SDS011;25670;44.782;10.356;2023-03-21T10:58:35;37.90;;;26.75;;
39982;SDS011;25670;44.782;10.356;2023-03-21T11:01:08;35.97;;;25.35;;
39982;SDS011;25670;44.782;10.356;2023-03-21T11:03:40;33.15;;;23.45;;
39982;SDS011;25670;44.782;10.356;2023-03-21T11:06:16;34.40;;;23.08;;
39982;SDS011;25670;44.782;10.356;2023-03-21T11:08:57;36.30;;;24.75;;
39982;SDS011;25670;44.782;10.356;2023-03-21T11:11:31;34.17;;;24.20;;
39982;SDS011;25670;44.782;10.356;2023-03-21T11:14:25;36.03;;;21.60;;
39982;SDS011;25670;44.782;10.356;2023-03-21T11:16:57;31.42;;;23.20;;
39982;SDS011;25670;44.782;10.356;2023-03-21T11:19:30;34.47;;;22.38;;
39982;SDS011;25670;44.782;10.356;2023-03-21T11:21:58;23.55;;;20.25;;
39982;SDS011;25670;44.782;10.356;2023-03-21T11:24:30;30.33;;;19.65;;
39982;SDS011;25670;44.782;10.356;2023-03-21T11:26:58;24.77;;;19.05;;
39982;SDS011;25670;44.782;10.356;2023-03-21T11:29:30;23.33;;;18.02;;
39982;SDS011;25670;44.782;10.356;2023-03-21T11:32:00;25.63;;;17.77;;
39982;SDS011;25670;44.782;10.356;2023-03-21T11:40:32;16.63;;;14.75;;
39982;SDS011;25670;44.782;10.356;2023-03-21T11:48:38;29.67;;;21.98;;
39982;SDS011;25670;44.782;10.356;2023-03-21T11:53:57;26.58;;;20.23;;
39982;SDS011;25670;44.782;10.356;2023-03-21T11:56:54;22.42;;;18.67;;
39982;SDS011;25670;44.782;10.356;2023-03-21T12:07:36;19.40;;;15.48;;
39982;SDS011;25670;44.782;10.356;2023-03-21T12:10:34;26.05;;;19.45;;
39982;SDS011;25670;44.782;10.356;2023-03-21T12:16:27;18.98;;;16.98;;
39982;SDS011;25670;44.782;10.356;2023-03-21T12:25:09;28.75;;;20.90;;
39982;SDS011;25670;44.782;10.356;2023-03-21T12:39:28;20.38;;;18.23;;
39982;SDS011;25670;44.782;10.356;2023-03-21T12:42:00;20.95;;;18.70;;
39982;SDS011;25670;44.782;10.356;2023-03-21T12:44:36;23.40;;;19.60;;
39982;SDS011;25670;44.782;10.356;2023-03-21T12:47:08;19.95;;;18.05;;
39982;SDS011;25670;44.782;10.356;2023-03-21T12:49:45;22.38;;;18.08;;
39982;SDS011;25670;44.782;10.356;2023-03-21T12:52:26;23.80;;;19.20;;
39982;SDS011;25670;44.782;10.356;2023-03-21T12:55:01;16.35;;;14.88;;
39982;SDS011;25670;44.782;10.356;2023-03-21T12:57:31;14.80;;;13.15;;
39982;SDS011;25670;44.782;10.356;2023-03-21T13:00:16;19.35;;;17.55;;
39982;SDS011;25670;44.782;10.356;2023-03-21T13:02:54;18.50;;;16.67;;
39982;SDS011;25670;44.782;10.356;2023-03-21T13:05:32;16.08;;;14.70;;
39982;SDS011;25670;44.782;10.356;2023-03-21T13:08:24;19.88;;;17.52;;
39982;SDS011;25670;44.782;10.356;2023-03-21T13:10:55;22.20;;;19.98;;
39982;SDS011;25670;44.782;10.356;2023-03-21T13:16:01;21.08;;;18.92;;
39982;SDS011;25670;44.782;10.356;2023-03-21T13:24:48;19.73;;;16.63;;
39982;SDS011;25670;44.782;10.356;2023-03-21T13:27:32;16.73;;;15.02;;
39982;SDS011;25670;44.782;10.356;2023-03-21T13:32:35;18.00;;;16.40;;
39982;SDS011;25670;44.782;10.356;2023-03-21T13:37:34;18.55;;;15.23;;
39982;SDS011;25670;44.782;10.356;2023-03-21T13:40:07;17.38;;;15.63;;
39982;SDS011;25670;44.782;10.356;2023-03-21T13:43:21;16.08;;;14.77;;
39982;SDS011;25670;44.782;10.356;2023-03-21T13:46:04;16.23;;;14.52;;
39982;SDS011;25670;44.782;10.356;2023-03-21T13:48:40;15.90;;;14.27;;
39982;SDS011;25670;44.782;10.356;2023-03-21T13:51:18;15.80;;;14.30;;
39982;SDS011;25670;44.782;10.356;2023-03-21T13:54:17;14.82;;;13.73;;
39982;SDS011;25670;44.782;10.356;2023-03-21T13:57:05;15.90;;;14.63;;
39982;SDS011;25670;44.782;10.356;2023-03-21T14:05:02;14.70;;;13.38;;
39982;SDS011;25670;44.782;10.356;2023-03-21T14:07:43;14.90;;;13.80;;
39982;SDS011;25670;44.782;10.356;2023-03-21T14:10:19;16.33;;;15.00;;
39982;SDS011;25670;44.782;10.356;2023-03-21T14:12:51;14.25;;;12.93;;
39982;SDS011;25670;44.782;10.356;2023-03-21T14:15:19;15.65;;;14.40;;
39982;SDS011;25670;44.782;10.356;2023-03-21T14:18:04;14.60;;;13.35;;
39982;SDS011;25670;44.782;10.356;2023-03-21T14:20:33;14.77;;;13.35;;
39982;SDS011;25670;44.782;10.356;2023-03-21T14:23:04;14.85;;;13.65;;
39982;SDS011;25670;44.782;10.356;2023-03-21T14:25:32;14.02;;;12.85;;
39982;SDS011;25670;44.782;10.356;2023-03-21T14:28:03;16.00;;;12.88;;
39982;SDS011;25670;44.782;10.356;2023-03-21T14:33:18;13.43;;;12.23;;
39982;SDS011;25670;44.782;10.356;2023-03-21T14:36:05;15.65;;;13.65;;
39982;SDS011;25670;44.782;10.356;2023-03-21T14:38:38;11.88;;;11.05;;
39982;SDS011;25670;44.782;10.356;2023-03-21T14:41:18;13.82;;;12.73;;
39982;SDS011;25670;44.782;10.356;2023-03-21T14:44:09;12.63;;;11.60;;
39982;SDS011;25670;44.782;10.356;2023-03-21T14:46:46;13.23;;;12.02;;
39982;SDS011;25670;44.782;10.356;2023-03-21T14:49:17;15.88;;;11.40;;
39982;SDS011;25670;44.782;10.356;2023-03-21T14:51:52;12.93;;;12.05;;
39982;SDS011;25670;44.782;10.356;2023-03-21T14:54:20;14.80;;;13.57;;
39982;SDS011;25670;44.782;10.356;2023-03-21T14:56:48;14.73;;;13.40;;
39982;SDS011;25670;44.782;10.356;2023-03-21T14:59:19;13.73;;;12.65;;
39982;SDS011;25670;44.782;10.356;2023-03-21T15:01:50;14.48;;;13.23;;
39982;SDS011;25670;44.782;10.356;2023-03-21T15:04:18;13.57;;;12.38;;
39982;SDS011;25670;44.782;10.356;2023-03-21T15:06:56;11.20;;;10.43;;
39982;SDS011;25670;44.782;10.356;2023-03-21T15:09:27;13.35;;;12.20;;
39982;SDS011;25670;44.782;10.356;2023-03-21T15:11:55;14.05;;;12.70;;
39982;SDS011;25670;44.782;10.356;2023-03-21T15:14:27;12.30;;;11.32;;
39982;SDS011;25670;44.782;10.356;2023-03-21T15:16:57;14.15;;;12.80;;
39982;SDS011;25670;44.782;10.356;2023-03-21T15:19:33;11.00;;;10.05;;
39982;SDS011;25670;44.782;10.356;2023-03-21T15:22:14;11.95;;;10.82;;
39982;SDS011;25670;44.782;10.356;2023-03-21T15:24:50;12.75;;;10.82;;
39982;SDS011;25670;44.782;10.356;2023-03-21T15:27:22;12.68;;;10.38;;
39982;SDS011;25670;44.782;10.356;2023-03-21T15:29:50;16.52;;;11.77;;
39982;SDS011;25670;44.782;10.356;2023-03-21T15:32:22;11.52;;;10.57;;
39982;SDS011;25670;44.782;10.356;2023-03-21T15:34:55;11.10;;;10.20;;
39982;SDS011;25670;44.782;10.356;2023-03-21T15:37:32;11.10;;;9.90;;
39982;SDS011;25670;44.782;10.356;2023-03-21T15:40:08;10.00;;;9.05;;
39982;SDS011;25670;44.782;10.356;2023-03-21T15:42:43;10.60;;;9.68;;
39982;SDS011;25670;44.782;10.356;2023-03-21T15:45:18;10.95;;;9.95;;
39982;SDS011;25670;44.782;10.356;2023-03-21T15:50:23;14.80;;;9.60;;
39982;SDS011;25670;44.782;10.356;2023-03-21T15:53:15;8.95;;;8.35;;
39982;SDS011;25670;44.782;10.356;2023-03-21T15:55:44;11.00;;;9.88;;
39982;SDS011;25670;44.782;10.356;2023-03-21T15:58:15;10.15;;;9.35;;
39982;SDS011;25670;44.782;10.356;2023-03-21T16:03:23;9.68;;;8.77;;
39982;SDS011;25670;44.782;10.356;2023-03-21T16:08:31;11.73;;;10.48;;
39982;SDS011;25670;44.782;10.356;2023-03-21T16:11:13;11.13;;;10.18;;
39982;SDS011;25670;44.782;10.356;2023-03-21T16:13:54;13.23;;;11.77;;
39982;SDS011;25670;44.782;10.356;2023-03-21T16:16:24;14.50;;;11.93;;
39982;SDS011;25670;44.782;10.356;2023-03-21T16:18:53;12.57;;;11.57;;